This is the latest recevied weather packets stored in our database for station/object N1OTX. If no packets are shown the sender has not sent any weather packets the latest 10 day(s).
| Time | Temp. | Humidity | Pressure | Rain* | Wind** | Luminosity | Snow |
|---|---|---|---|---|---|---|---|
| 1778080529 | 22.22° C | 57% | 1009.1 hPa | 0 mm | - | 405 W/m² | - |
| 1778079949 | 22.22° C | 58% | 1009.2 hPa | 0 mm | - | 497 W/m² | - |
| 1778079328 | 21.67° C | 59% | 1009.3 hPa | 0 mm | - | 363 W/m² | - |
| 1778078428 | 21.11° C | 61% | 1009.1 hPa | 0 mm | - | 354 W/m² | - |
| 1778077228 | 20.56° C | 64% | 1009.1 hPa | 0 mm | - | 337 W/m² | - |
| 1778076927 | 20.56° C | 63% | 1009.2 hPa | 0 mm | - | 441 W/m² | - |
| 1778075729 | 20° C | 67% | 1009.3 hPa | 0 mm | - | 598 W/m² | - |
| 1778074528 | 18.89° C | 70% | 1009.8 hPa | 0 mm | - | 292 W/m² | - |
| 1778073028 | 18.33° C | 73% | 1009.7 hPa | 0 mm | - | 213 W/m² | - |
| 1778071829 | 18.33° C | 73% | 1009.7 hPa | 0 mm | - | 288 W/m² | - |
| 1778071529 | 17.78° C | 73% | 1009.8 hPa | 0 mm | - | 279 W/m² | - |
| 1778069728 | 17.22° C | 75% | 1009.9 hPa | 0 mm | - | 258 W/m² | - |
| 1778069428 | 17.22° C | 75% | 1009.8 hPa | 0 mm | - | 242 W/m² | - |
| 1778068527 | 16.67° C | 77% | 1010.2 hPa | 0 mm | - | 173 W/m² | - |
| 1778064928 | 15.56° C | 80% | 1010.1 hPa | 0 mm | - | 124 W/m² | - |
| 1778062828 | 15.56° C | 80% | 1010.3 hPa | 0 mm | - | 30 W/m² | - |
| 1778062227 | 15.56° C | 80% | 1010.1 hPa | 0 mm | - | 21 W/m² | - |
| 1778061629 | 15.56° C | 80% | 1010.1 hPa | 0 mm | - | 21 W/m² | - |
| 1778061028 | 15.56° C | 79% | 1009.9 hPa | 0 mm | - | 10 W/m² | - |
| 1778059527 | 15.56° C | 78% | 1010 hPa | 0 mm | - | 1 W/m² | - |
| 1778059227 | 16.11° C | 78% | 1010.1 hPa | 0 mm | - | 0 W/m² | - |
| 1778057728 | 16.11° C | 76% | 1010.1 hPa | 0 mm | - | 0 W/m² | - |
| 1778055627 | 16.11° C | 74% | 1009.9 hPa | 0 mm | - | 0 W/m² | - |
| 1778055027 | 16.67° C | 74% | 1010 hPa | 0 mm | - | 0 W/m² | - |
| 1778051127 | 17.22° C | 70% | 1009.6 hPa | 0 mm | - | 0 W/m² | - |
* Rain latest hour (hover to see other rain measurements)
** Current wind speed in m/s (hover to see current wind gust speed)